Lebork, Poland

8:55 PM CEST on September 23, 2014 (GMT +0200)
Luzino | Change Station
CLOSE
Current Station
Personal Weather Station
Location: Luzino, WOJ. POMORSKIE
Elevation: 331 ft
Nearby Weather Stations

Elev 331 ft 54.57 °N, 18.10 °E | Updated 15 minutes ago

Rain
Rain
42.4 °F
Feels Like 42 °F
N
2.2
Wind Variable Wind from West
Gusts 6.0 mph

Today
High -- | Low -- °F
--% Chance of Precip.
Yesterday
High -- | Low -- °F
Precip. -- in
6:35 AM 6:45 PM
Waning Crescent, 0% visible
Pressure 30.01 in
Visibility 6.2 miles
Clouds Few 3300 ft
Windchill 42 °F
Dew Point 42 °F
Humidity 99%
Rainfall 0.35 in
Snow Depth Not available.
UV 0 out of 12
Pollen Not available.
Air Quality Not available.
Flu Activity Not available.
METAR EPGD 231830Z 30006KT 9999 FEW033 05/04 Q1016

More Conditions Fewer Conditions

Pressure 30.01 in
Visibility 6.2 miles
Clouds Few 3300 ft
Windchill 42 °F
Dew Point 42 °F
Humidity 99%
Rainfall 0.35 in
Snow Depth Not available.
UV 0 out of 12
Pollen Not available.
Air Quality Not available.
Flu Activity Not available.
METAR EPGD 231830Z 30006KT 9999 FEW033 05/04 Q1016

More Conditions Fewer Conditions

10-Day Weather Forecast

Almanac

Astronomy

Sep. 23, 2014 Rise Set
Actual Time 6:35 AM CEST 6:45 PM CEST
Civil Twilight 6:00 AM CEST 7:21 PM CEST
Nautical Twilight 5:17 AM CEST 8:03 PM CEST
Astronomical Twilight 4:32 AM CEST 8:48 PM CEST
Moon 5:39 AM CEST 6:14 PM CEST
Length of Visible Light 13h 21m
Length of Day
12h 09m
Tomorrow will be 4m 23s shorter.
Waning Crescent, 0% of the Moon is Illuminated
Today
Waning Crescent
Sep 24
New
Oct 1
First Quarter
Oct 8
Full
Oct 15
Last Quarter

Today's Extremes

Country Highs Country Lows

Community

WunderPhotos

Upload Photos

1,755,775 photos uploaded!

Nearby

Snow Depth

Not available.

Earthquake Activity

City Distance Mag. Time & Date
No recent earthquake activity has been reported nearby.
Minimum magnitude displayed is 2.5.

Coastal Water Temperatures

Place Temperature
No Stations Reporting

Nearby Weather Stations